sensor_id;sensor_type;location;lat;lon;timestamp;P1;durP1;ratioP1;P2;durP2;ratioP2
70487;SDS011;57976;48.174;16.370;2024-02-16T00:00:08;19.20;;;10.60;;
70487;SDS011;57976;48.174;16.370;2024-02-16T00:02:15;18.10;;;10.10;;
70487;SDS011;57976;48.174;16.370;2024-02-16T00:04:20;17.50;;;10.10;;
70487;SDS011;57976;48.174;16.370;2024-02-16T00:06:28;18.60;;;10.10;;
70487;SDS011;57976;48.174;16.370;2024-02-16T00:08:32;17.30;;;9.90;;
70487;SDS011;57976;48.174;16.370;2024-02-16T00:10:40;18.20;;;10.30;;
70487;SDS011;57976;48.174;16.370;2024-02-16T00:12:45;17.70;;;10.30;;
70487;SDS011;57976;48.174;16.370;2024-02-16T00:14:50;17.80;;;10.40;;
70487;SDS011;57976;48.174;16.370;2024-02-16T00:16:55;19.50;;;10.60;;
70487;SDS011;57976;48.174;16.370;2024-02-16T00:19:00;18.10;;;10.50;;
70487;SDS011;57976;48.174;16.370;2024-02-16T00:21:05;19.00;;;10.30;;
70487;SDS011;57976;48.174;16.370;2024-02-16T00:23:10;18.60;;;10.30;;
70487;SDS011;57976;48.174;16.370;2024-02-16T00:25:15;18.60;;;10.00;;
70487;SDS011;57976;48.174;16.370;2024-02-16T00:27:19;18.40;;;9.90;;
70487;SDS011;57976;48.174;16.370;2024-02-16T00:29:24;16.90;;;9.70;;
70487;SDS011;57976;48.174;16.370;2024-02-16T00:31:29;19.20;;;10.00;;
70487;SDS011;57976;48.174;16.370;2024-02-16T00:33:34;17.50;;;9.90;;
70487;SDS011;57976;48.174;16.370;2024-02-16T00:35:38;18.20;;;9.80;;
70487;SDS011;57976;48.174;16.370;2024-02-16T00:37:43;16.60;;;10.00;;
70487;SDS011;57976;48.174;16.370;2024-02-16T00:39:48;18.50;;;10.10;;
70487;SDS011;57976;48.174;16.370;2024-02-16T00:41:53;18.40;;;10.10;;
70487;SDS011;57976;48.174;16.370;2024-02-16T00:43:58;17.90;;;10.10;;
70487;SDS011;57976;48.174;16.370;2024-02-16T00:46:02;17.70;;;10.10;;
70487;SDS011;57976;48.174;16.370;2024-02-16T00:48:08;18.30;;;9.90;;
70487;SDS011;57976;48.174;16.370;2024-02-16T00:50:13;17.70;;;9.90;;
70487;SDS011;57976;48.174;16.370;2024-02-16T00:52:17;17.90;;;9.90;;
70487;SDS011;57976;48.174;16.370;2024-02-16T00:54:22;17.40;;;9.80;;
70487;SDS011;57976;48.174;16.370;2024-02-16T00:56:27;18.30;;;9.90;;
70487;SDS011;57976;48.174;16.370;2024-02-16T00:58:32;18.20;;;10.20;;
70487;SDS011;57976;48.174;16.370;2024-02-16T01:00:37;18.80;;;10.30;;
70487;SDS011;57976;48.174;16.370;2024-02-16T01:02:41;19.20;;;10.10;;
70487;SDS011;57976;48.174;16.370;2024-02-16T01:04:46;17.10;;;9.50;;
70487;SDS011;57976;48.174;16.370;2024-02-16T01:06:51;17.00;;;9.80;;
70487;SDS011;57976;48.174;16.370;2024-02-16T01:08:56;18.10;;;9.90;;
70487;SDS011;57976;48.174;16.370;2024-02-16T01:11:00;20.20;;;10.40;;
70487;SDS011;57976;48.174;16.370;2024-02-16T01:13:05;18.70;;;9.90;;
70487;SDS011;57976;48.174;16.370;2024-02-16T01:15:10;17.60;;;10.00;;
70487;SDS011;57976;48.174;16.370;2024-02-16T01:17:15;17.40;;;9.70;;
70487;SDS011;57976;48.174;16.370;2024-02-16T01:19:20;17.50;;;10.20;;
70487;SDS011;57976;48.174;16.370;2024-02-16T01:21:24;17.50;;;9.70;;
70487;SDS011;57976;48.174;16.370;2024-02-16T01:23:29;15.80;;;9.20;;
70487;SDS011;57976;48.174;16.370;2024-02-16T01:25:34;16.10;;;9.10;;
70487;SDS011;57976;48.174;16.370;2024-02-16T01:27:39;18.70;;;10.10;;
70487;SDS011;57976;48.174;16.370;2024-02-16T01:29:44;18.50;;;9.40;;
70487;SDS011;57976;48.174;16.370;2024-02-16T01:31:48;18.10;;;10.00;;
70487;SDS011;57976;48.174;16.370;2024-02-16T01:33:53;18.40;;;9.80;;
70487;SDS011;57976;48.174;16.370;2024-02-16T01:35:58;17.60;;;9.50;;
70487;SDS011;57976;48.174;16.370;2024-02-16T01:38:03;17.50;;;9.50;;
70487;SDS011;57976;48.174;16.370;2024-02-16T01:40:09;17.70;;;9.40;;
70487;SDS011;57976;48.174;16.370;2024-02-16T01:42:14;17.80;;;9.70;;
70487;SDS011;57976;48.174;16.370;2024-02-16T01:44:19;17.20;;;9.70;;
70487;SDS011;57976;48.174;16.370;2024-02-16T01:46:24;18.00;;;9.60;;
70487;SDS011;57976;48.174;16.370;2024-02-16T01:48:29;18.00;;;9.50;;
70487;SDS011;57976;48.174;16.370;2024-02-16T01:50:34;17.20;;;9.50;;
70487;SDS011;57976;48.174;16.370;2024-02-16T01:52:40;16.20;;;9.10;;
70487;SDS011;57976;48.174;16.370;2024-02-16T01:54:45;18.20;;;9.70;;
70487;SDS011;57976;48.174;16.370;2024-02-16T01:56:50;17.20;;;9.40;;
70487;SDS011;57976;48.174;16.370;2024-02-16T01:58:54;17.90;;;8.90;;
70487;SDS011;57976;48.174;16.370;2024-02-16T02:01:00;16.10;;;8.90;;
70487;SDS011;57976;48.174;16.370;2024-02-16T02:03:05;18.80;;;9.60;;
70487;SDS011;57976;48.174;16.370;2024-02-16T02:05:10;18.70;;;9.90;;
70487;SDS011;57976;48.174;16.370;2024-02-16T02:07:15;18.40;;;9.80;;
70487;SDS011;57976;48.174;16.370;2024-02-16T02:09:20;15.90;;;9.30;;
70487;SDS011;57976;48.174;16.370;2024-02-16T02:11:28;16.90;;;8.90;;
70487;SDS011;57976;48.174;16.370;2024-02-16T02:13:32;16.60;;;9.50;;
70487;SDS011;57976;48.174;16.370;2024-02-16T02:15:37;18.90;;;9.50;;
70487;SDS011;57976;48.174;16.370;2024-02-16T02:17:42;15.70;;;9.50;;
70487;SDS011;57976;48.174;16.370;2024-02-16T02:19:47;17.10;;;9.50;;
70487;SDS011;57976;48.174;16.370;2024-02-16T02:21:52;17.20;;;9.30;;
70487;SDS011;57976;48.174;16.370;2024-02-16T02:23:57;18.10;;;9.20;;
70487;SDS011;57976;48.174;16.370;2024-02-16T02:26:01;16.90;;;9.70;;
70487;SDS011;57976;48.174;16.370;2024-02-16T02:28:07;16.50;;;8.90;;
70487;SDS011;57976;48.174;16.370;2024-02-16T02:30:12;16.40;;;9.30;;
70487;SDS011;57976;48.174;16.370;2024-02-16T02:32:17;16.70;;;8.80;;
70487;SDS011;57976;48.174;16.370;2024-02-16T02:34:22;17.70;;;9.50;;
70487;SDS011;57976;48.174;16.370;2024-02-16T02:36:27;16.50;;;9.40;;
70487;SDS011;57976;48.174;16.370;2024-02-16T02:38:32;15.70;;;8.80;;
70487;SDS011;57976;48.174;16.370;2024-02-16T02:40:37;17.50;;;8.50;;
70487;SDS011;57976;48.174;16.370;2024-02-16T02:42:41;16.10;;;8.80;;
70487;SDS011;57976;48.174;16.370;2024-02-16T02:44:46;16.30;;;9.10;;
70487;SDS011;57976;48.174;16.370;2024-02-16T02:46:51;14.70;;;8.40;;
70487;SDS011;57976;48.174;16.370;2024-02-16T02:48:56;16.70;;;8.60;;
70487;SDS011;57976;48.174;16.370;2024-02-16T02:51:01;15.60;;;8.70;;
70487;SDS011;57976;48.174;16.370;2024-02-16T02:53:05;16.70;;;8.80;;
70487;SDS011;57976;48.174;16.370;2024-02-16T02:55:10;16.70;;;9.30;;
70487;SDS011;57976;48.174;16.370;2024-02-16T02:57:15;17.70;;;9.10;;
70487;SDS011;57976;48.174;16.370;2024-02-16T02:59:20;16.90;;;9.30;;
70487;SDS011;57976;48.174;16.370;2024-02-16T03:01:25;17.00;;;9.00;;
70487;SDS011;57976;48.174;16.370;2024-02-16T03:03:29;17.00;;;9.40;;
70487;SDS011;57976;48.174;16.370;2024-02-16T03:05:34;18.10;;;10.00;;
70487;SDS011;57976;48.174;16.370;2024-02-16T03:07:39;19.00;;;10.40;;
70487;SDS011;57976;48.174;16.370;2024-02-16T03:09:44;18.00;;;10.00;;
70487;SDS011;57976;48.174;16.370;2024-02-16T03:11:48;20.00;;;10.50;;
70487;SDS011;57976;48.174;16.370;2024-02-16T03:13:53;18.50;;;10.10;;
70487;SDS011;57976;48.174;16.370;2024-02-16T03:15:58;18.30;;;10.80;;
70487;SDS011;57976;48.174;16.370;2024-02-16T03:18:03;18.60;;;10.80;;
70487;SDS011;57976;48.174;16.370;2024-02-16T03:20:09;17.90;;;10.30;;
70487;SDS011;57976;48.174;16.370;2024-02-16T03:22:14;18.30;;;10.10;;
70487;SDS011;57976;48.174;16.370;2024-02-16T03:24:19;19.60;;;10.40;;
70487;SDS011;57976;48.174;16.370;2024-02-16T03:26:24;18.00;;;10.00;;
70487;SDS011;57976;48.174;16.370;2024-02-16T03:28:28;18.90;;;10.50;;
70487;SDS011;57976;48.174;16.370;2024-02-16T03:30:33;18.60;;;9.90;;
70487;SDS011;57976;48.174;16.370;2024-02-16T03:32:38;19.60;;;10.80;;
70487;SDS011;57976;48.174;16.370;2024-02-16T03:34:43;19.00;;;10.60;;
70487;SDS011;57976;48.174;16.370;2024-02-16T03:36:48;19.00;;;10.10;;
70487;SDS011;57976;48.174;16.370;2024-02-16T03:38:52;19.60;;;9.80;;
70487;SDS011;57976;48.174;16.370;2024-02-16T03:40:57;19.30;;;10.60;;
70487;SDS011;57976;48.174;16.370;2024-02-16T03:43:02;19.50;;;10.10;;
70487;SDS011;57976;48.174;16.370;2024-02-16T03:45:08;18.40;;;10.40;;
70487;SDS011;57976;48.174;16.370;2024-02-16T03:47:15;18.90;;;10.00;;
70487;SDS011;57976;48.174;16.370;2024-02-16T03:49:19;18.50;;;10.10;;
70487;SDS011;57976;48.174;16.370;2024-02-16T03:51:24;18.20;;;10.20;;
70487;SDS011;57976;48.174;16.370;2024-02-16T03:53:29;17.90;;;9.90;;
70487;SDS011;57976;48.174;16.370;2024-02-16T03:55:34;17.60;;;9.90;;
70487;SDS011;57976;48.174;16.370;2024-02-16T03:57:42;17.60;;;10.60;;
70487;SDS011;57976;48.174;16.370;2024-02-16T03:59:46;20.10;;;10.60;;
70487;SDS011;57976;48.174;16.370;2024-02-16T04:01:51;20.40;;;10.80;;
70487;SDS011;57976;48.174;16.370;2024-02-16T04:03:56;19.90;;;10.50;;
70487;SDS011;57976;48.174;16.370;2024-02-16T04:06:01;19.50;;;10.20;;
70487;SDS011;57976;48.174;16.370;2024-02-16T04:08:06;20.10;;;11.10;;
70487;SDS011;57976;48.174;16.370;2024-02-16T04:10:12;24.40;;;13.50;;
70487;SDS011;57976;48.174;16.370;2024-02-16T04:12:16;18.40;;;10.20;;
70487;SDS011;57976;48.174;16.370;2024-02-16T04:14:21;19.60;;;10.40;;
70487;SDS011;57976;48.174;16.370;2024-02-16T04:16:26;18.40;;;10.30;;
70487;SDS011;57976;48.174;16.370;2024-02-16T04:18:30;18.50;;;10.50;;
70487;SDS011;57976;48.174;16.370;2024-02-16T04:20:35;27.80;;;15.10;;
70487;SDS011;57976;48.174;16.370;2024-02-16T04:22:40;18.10;;;10.50;;
70487;SDS011;57976;48.174;16.370;2024-02-16T04:24:45;17.10;;;9.50;;
70487;SDS011;57976;48.174;16.370;2024-02-16T04:26:50;17.00;;;9.60;;
70487;SDS011;57976;48.174;16.370;2024-02-16T04:28:55;16.80;;;9.40;;
70487;SDS011;57976;48.174;16.370;2024-02-16T04:30:59;18.30;;;10.10;;
70487;SDS011;57976;48.174;16.370;2024-02-16T04:33:05;17.40;;;9.00;;
70487;SDS011;57976;48.174;16.370;2024-02-16T04:35:10;18.20;;;9.50;;
70487;SDS011;57976;48.174;16.370;2024-02-16T04:37:15;17.70;;;9.60;;
70487;SDS011;57976;48.174;16.370;2024-02-16T04:39:20;16.10;;;9.50;;
70487;SDS011;57976;48.174;16.370;2024-02-16T04:41:25;18.20;;;9.30;;
70487;SDS011;57976;48.174;16.370;2024-02-16T04:43:30;16.70;;;9.00;;
70487;SDS011;57976;48.174;16.370;2024-02-16T04:45:35;16.90;;;9.50;;
70487;SDS011;57976;48.174;16.370;2024-02-16T04:47:39;18.70;;;9.50;;
70487;SDS011;57976;48.174;16.370;2024-02-16T04:49:44;17.40;;;9.20;;
70487;SDS011;57976;48.174;16.370;2024-02-16T04:51:49;18.20;;;9.50;;
70487;SDS011;57976;48.174;16.370;2024-02-16T04:53:54;16.20;;;8.80;;
70487;SDS011;57976;48.174;16.370;2024-02-16T04:55:58;16.60;;;8.90;;
70487;SDS011;57976;48.174;16.370;2024-02-16T04:58:03;16.00;;;8.70;;
70487;SDS011;57976;48.174;16.370;2024-02-16T05:00:09;15.80;;;7.80;;
70487;SDS011;57976;48.174;16.370;2024-02-16T05:02:16;17.10;;;9.20;;
70487;SDS011;57976;48.174;16.370;2024-02-16T05:04:21;16.40;;;8.60;;
70487;SDS011;57976;48.174;16.370;2024-02-16T05:06:26;15.50;;;8.40;;
70487;SDS011;57976;48.174;16.370;2024-02-16T05:08:30;16.60;;;8.50;;
70487;SDS011;57976;48.174;16.370;2024-02-16T05:10:35;16.20;;;8.40;;
70487;SDS011;57976;48.174;16.370;2024-02-16T05:12:40;16.10;;;8.60;;
70487;SDS011;57976;48.174;16.370;2024-02-16T05:14:45;17.50;;;9.00;;
70487;SDS011;57976;48.174;16.370;2024-02-16T05:16:52;16.30;;;8.80;;
70487;SDS011;57976;48.174;16.370;2024-02-16T05:19:03;14.90;;;8.10;;
70487;SDS011;57976;48.174;16.370;2024-02-16T05:21:07;16.60;;;8.60;;
70487;SDS011;57976;48.174;16.370;2024-02-16T05:23:12;17.80;;;8.70;;
70487;SDS011;57976;48.174;16.370;2024-02-16T05:25:17;15.40;;;8.00;;
70487;SDS011;57976;48.174;16.370;2024-02-16T05:27:22;15.50;;;8.80;;
70487;SDS011;57976;48.174;16.370;2024-02-16T05:29:27;16.30;;;8.90;;
70487;SDS011;57976;48.174;16.370;2024-02-16T05:31:31;15.00;;;8.10;;
70487;SDS011;57976;48.174;16.370;2024-02-16T05:33:36;16.40;;;8.30;;
70487;SDS011;57976;48.174;16.370;2024-02-16T05:35:41;15.40;;;8.90;;
70487;SDS011;57976;48.174;16.370;2024-02-16T05:37:46;15.50;;;8.80;;
70487;SDS011;57976;48.174;16.370;2024-02-16T05:39:51;14.80;;;8.20;;
70487;SDS011;57976;48.174;16.370;2024-02-16T05:41:55;14.80;;;8.30;;
70487;SDS011;57976;48.174;16.370;2024-02-16T05:44:00;16.80;;;8.10;;
70487;SDS011;57976;48.174;16.370;2024-02-16T05:46:05;15.70;;;8.10;;
70487;SDS011;57976;48.174;16.370;2024-02-16T05:48:15;14.40;;;7.90;;
70487;SDS011;57976;48.174;16.370;2024-02-16T05:50:21;15.70;;;8.60;;
70487;SDS011;57976;48.174;16.370;2024-02-16T05:52:26;16.60;;;8.60;;
70487;SDS011;57976;48.174;16.370;2024-02-16T05:54:31;16.10;;;8.40;;
70487;SDS011;57976;48.174;16.370;2024-02-16T05:56:41;14.20;;;7.90;;
70487;SDS011;57976;48.174;16.370;2024-02-16T05:58:45;15.80;;;8.20;;
70487;SDS011;57976;48.174;16.370;2024-02-16T06:00:50;15.00;;;8.20;;
70487;SDS011;57976;48.174;16.370;2024-02-16T06:02:56;15.00;;;8.50;;
70487;SDS011;57976;48.174;16.370;2024-02-16T06:05:03;16.00;;;8.70;;
70487;SDS011;57976;48.174;16.370;2024-02-16T06:07:08;16.80;;;8.50;;
70487;SDS011;57976;48.174;16.370;2024-02-16T06:09:13;15.50;;;8.30;;
70487;SDS011;57976;48.174;16.370;2024-02-16T06:11:18;15.90;;;8.10;;
70487;SDS011;57976;48.174;16.370;2024-02-16T06:13:23;15.70;;;8.30;;
70487;SDS011;57976;48.174;16.370;2024-02-16T06:15:28;17.80;;;8.60;;
70487;SDS011;57976;48.174;16.370;2024-02-16T06:17:33;15.50;;;8.50;;
70487;SDS011;57976;48.174;16.370;2024-02-16T06:19:38;15.40;;;8.60;;
70487;SDS011;57976;48.174;16.370;2024-02-16T06:21:42;15.20;;;8.00;;
70487;SDS011;57976;48.174;16.370;2024-02-16T06:23:47;16.50;;;8.10;;
70487;SDS011;57976;48.174;16.370;2024-02-16T06:25:52;15.00;;;8.00;;
70487;SDS011;57976;48.174;16.370;2024-02-16T06:27:57;15.90;;;8.20;;
70487;SDS011;57976;48.174;16.370;2024-02-16T06:30:02;16.00;;;8.60;;
70487;SDS011;57976;48.174;16.370;2024-02-16T06:32:07;18.30;;;8.90;;
70487;SDS011;57976;48.174;16.370;2024-02-16T06:34:13;14.90;;;7.90;;
70487;SDS011;57976;48.174;16.370;2024-02-16T06:36:17;16.30;;;8.40;;
70487;SDS011;57976;48.174;16.370;2024-02-16T06:38:22;13.70;;;7.70;;
70487;SDS011;57976;48.174;16.370;2024-02-16T06:40:27;16.80;;;8.80;;
70487;SDS011;57976;48.174;16.370;2024-02-16T06:42:32;15.30;;;8.30;;
70487;SDS011;57976;48.174;16.370;2024-02-16T06:44:37;17.00;;;8.80;;
70487;SDS011;57976;48.174;16.370;2024-02-16T06:46:42;15.70;;;8.50;;
70487;SDS011;57976;48.174;16.370;2024-02-16T06:48:46;15.50;;;8.40;;
70487;SDS011;57976;48.174;16.370;2024-02-16T06:50:51;15.70;;;8.20;;
70487;SDS011;57976;48.174;16.370;2024-02-16T06:52:56;15.20;;;8.00;;
70487;SDS011;57976;48.174;16.370;2024-02-16T06:55:01;14.40;;;7.90;;
70487;SDS011;57976;48.174;16.370;2024-02-16T06:57:07;15.60;;;7.90;;
70487;SDS011;57976;48.174;16.370;2024-02-16T06:59:14;18.00;;;8.30;;
70487;SDS011;57976;48.174;16.370;2024-02-16T07:01:19;14.10;;;7.60;;
70487;SDS011;57976;48.174;16.370;2024-02-16T07:03:25;14.40;;;7.70;;
70487;SDS011;57976;48.174;16.370;2024-02-16T07:05:29;14.20;;;7.50;;
70487;SDS011;57976;48.174;16.370;2024-02-16T07:07:38;14.20;;;7.50;;
70487;SDS011;57976;48.174;16.370;2024-02-16T07:09:42;14.70;;;7.60;;
70487;SDS011;57976;48.174;16.370;2024-02-16T07:11:50;13.50;;;7.30;;
70487;SDS011;57976;48.174;16.370;2024-02-16T07:13:56;14.10;;;7.30;;
70487;SDS011;57976;48.174;16.370;2024-02-16T07:16:01;13.90;;;7.40;;
70487;SDS011;57976;48.174;16.370;2024-02-16T07:18:06;13.40;;;7.20;;
70487;SDS011;57976;48.174;16.370;2024-02-16T07:20:11;14.30;;;7.30;;
70487;SDS011;57976;48.174;16.370;2024-02-16T07:22:16;14.20;;;7.10;;
70487;SDS011;57976;48.174;16.370;2024-02-16T07:24:21;12.60;;;6.50;;
70487;SDS011;57976;48.174;16.370;2024-02-16T07:26:26;12.70;;;7.00;;
70487;SDS011;57976;48.174;16.370;2024-02-16T07:28:31;15.20;;;7.30;;
70487;SDS011;57976;48.174;16.370;2024-02-16T07:30:36;14.30;;;7.10;;
70487;SDS011;57976;48.174;16.370;2024-02-16T07:32:49;11.30;;;5.60;;
70487;SDS011;57976;48.174;16.370;2024-02-16T07:34:57;14.60;;;6.80;;
70487;SDS011;57976;48.174;16.370;2024-02-16T07:37:02;12.70;;;6.90;;
70487;SDS011;57976;48.174;16.370;2024-02-16T07:39:07;12.90;;;6.70;;
70487;SDS011;57976;48.174;16.370;2024-02-16T07:41:12;12.80;;;6.50;;
70487;SDS011;57976;48.174;16.370;2024-02-16T07:43:17;14.30;;;6.50;;
70487;SDS011;57976;48.174;16.370;2024-02-16T07:45:22;13.90;;;6.70;;
70487;SDS011;57976;48.174;16.370;2024-02-16T07:47:27;11.20;;;6.30;;
70487;SDS011;57976;48.174;16.370;2024-02-16T07:49:32;12.40;;;6.60;;
70487;SDS011;57976;48.174;16.370;2024-02-16T07:51:40;12.70;;;6.50;;
70487;SDS011;57976;48.174;16.370;2024-02-16T07:53:45;11.30;;;6.30;;
70487;SDS011;57976;48.174;16.370;2024-02-16T07:55:50;11.70;;;6.10;;
70487;SDS011;57976;48.174;16.370;2024-02-16T07:57:55;12.70;;;6.50;;
70487;SDS011;57976;48.174;16.370;2024-02-16T08:00:00;11.50;;;6.30;;
70487;SDS011;57976;48.174;16.370;2024-02-16T08:02:06;12.10;;;6.30;;
70487;SDS011;57976;48.174;16.370;2024-02-16T08:04:11;12.00;;;6.10;;
70487;SDS011;57976;48.174;16.370;2024-02-16T08:06:16;11.10;;;5.80;;
70487;SDS011;57976;48.174;16.370;2024-02-16T08:08:23;12.60;;;5.90;;
70487;SDS011;57976;48.174;16.370;2024-02-16T08:10:30;12.20;;;5.60;;
70487;SDS011;57976;48.174;16.370;2024-02-16T08:12:35;12.70;;;5.80;;
70487;SDS011;57976;48.174;16.370;2024-02-16T08:14:40;10.10;;;5.00;;
70487;SDS011;57976;48.174;16.370;2024-02-16T08:16:45;9.80;;;5.00;;
70487;SDS011;57976;48.174;16.370;2024-02-16T08:18:52;11.50;;;5.70;;
70487;SDS011;57976;48.174;16.370;2024-02-16T08:20:57;12.10;;;5.60;;
70487;SDS011;57976;48.174;16.370;2024-02-16T08:23:02;10.70;;;4.80;;
70487;SDS011;57976;48.174;16.370;2024-02-16T08:25:08;12.40;;;5.70;;
70487;SDS011;57976;48.174;16.370;2024-02-16T08:27:13;9.60;;;5.00;;
70487;SDS011;57976;48.174;16.370;2024-02-16T08:29:19;10.60;;;5.40;;
70487;SDS011;57976;48.174;16.370;2024-02-16T08:31:23;10.70;;;5.30;;
70487;SDS011;57976;48.174;16.370;2024-02-16T08:33:31;10.10;;;5.30;;
70487;SDS011;57976;48.174;16.370;2024-02-16T08:35:36;9.70;;;5.30;;
70487;SDS011;57976;48.174;16.370;2024-02-16T08:37:42;10.30;;;4.70;;
70487;SDS011;57976;48.174;16.370;2024-02-16T08:39:47;10.80;;;4.70;;
70487;SDS011;57976;48.174;16.370;2024-02-16T08:41:52;9.70;;;4.60;;
70487;SDS011;57976;48.174;16.370;2024-02-16T08:43:57;10.60;;;4.30;;
70487;SDS011;57976;48.174;16.370;2024-02-16T08:46:02;8.70;;;4.50;;
70487;SDS011;57976;48.174;16.370;2024-02-16T08:48:07;8.80;;;3.90;;
70487;SDS011;57976;48.174;16.370;2024-02-16T08:50:12;10.50;;;4.30;;
70487;SDS011;57976;48.174;16.370;2024-02-16T08:52:17;8.80;;;4.10;;
70487;SDS011;57976;48.174;16.370;2024-02-16T08:54:22;9.60;;;4.00;;
70487;SDS011;57976;48.174;16.370;2024-02-16T08:56:27;7.60;;;3.80;;
70487;SDS011;57976;48.174;16.370;2024-02-16T08:58:32;7.50;;;3.50;;
70487;SDS011;57976;48.174;16.370;2024-02-16T09:00:37;8.30;;;4.00;;
70487;SDS011;57976;48.174;16.370;2024-02-16T09:02:42;8.80;;;4.10;;
70487;SDS011;57976;48.174;16.370;2024-02-16T09:04:47;7.80;;;3.70;;
70487;SDS011;57976;48.174;16.370;2024-02-16T09:06:54;9.00;;;4.30;;
70487;SDS011;57976;48.174;16.370;2024-02-16T09:08:59;7.60;;;3.60;;
70487;SDS011;57976;48.174;16.370;2024-02-16T09:11:05;8.20;;;3.70;;
70487;SDS011;57976;48.174;16.370;2024-02-16T09:13:10;8.80;;;3.70;;
70487;SDS011;57976;48.174;16.370;2024-02-16T09:15:15;8.00;;;4.00;;
70487;SDS011;57976;48.174;16.370;2024-02-16T09:17:20;8.50;;;3.60;;
70487;SDS011;57976;48.174;16.370;2024-02-16T09:19:25;8.00;;;3.80;;
70487;SDS011;57976;48.174;16.370;2024-02-16T09:21:30;7.20;;;3.20;;
70487;SDS011;57976;48.174;16.370;2024-02-16T09:23:36;7.70;;;3.50;;
70487;SDS011;57976;48.174;16.370;2024-02-16T09:25:41;7.80;;;3.30;;
70487;SDS011;57976;48.174;16.370;2024-02-16T09:27:46;7.50;;;3.40;;
70487;SDS011;57976;48.174;16.370;2024-02-16T09:29:51;7.10;;;3.30;;
70487;SDS011;57976;48.174;16.370;2024-02-16T09:31:56;7.60;;;3.50;;
70487;SDS011;57976;48.174;16.370;2024-02-16T09:34:02;7.30;;;3.50;;
70487;SDS011;57976;48.174;16.370;2024-02-16T09:36:07;7.40;;;3.70;;
70487;SDS011;57976;48.174;16.370;2024-02-16T09:38:13;7.30;;;3.00;;
70487;SDS011;57976;48.174;16.370;2024-02-16T09:40:19;7.00;;;3.30;;
70487;SDS011;57976;48.174;16.370;2024-02-16T09:42:24;7.00;;;3.10;;
70487;SDS011;57976;48.174;16.370;2024-02-16T09:44:29;6.70;;;3.00;;
70487;SDS011;57976;48.174;16.370;2024-02-16T09:46:38;7.30;;;3.00;;
70487;SDS011;57976;48.174;16.370;2024-02-16T09:48:43;9.70;;;3.20;;
70487;SDS011;57976;48.174;16.370;2024-02-16T09:50:51;6.60;;;2.70;;
70487;SDS011;57976;48.174;16.370;2024-02-16T09:52:58;6.20;;;2.80;;
70487;SDS011;57976;48.174;16.370;2024-02-16T09:55:07;7.30;;;3.20;;
70487;SDS011;57976;48.174;16.370;2024-02-16T09:57:17;6.80;;;2.80;;
70487;SDS011;57976;48.174;16.370;2024-02-16T09:59:22;7.40;;;2.90;;
70487;SDS011;57976;48.174;16.370;2024-02-16T10:01:27;7.00;;;2.70;;
70487;SDS011;57976;48.174;16.370;2024-02-16T10:03:32;6.40;;;2.90;;
70487;SDS011;57976;48.174;16.370;2024-02-16T10:05:38;6.50;;;2.60;;
70487;SDS011;57976;48.174;16.370;2024-02-16T10:07:44;6.80;;;2.90;;
70487;SDS011;57976;48.174;16.370;2024-02-16T10:09:49;6.60;;;2.60;;
70487;SDS011;57976;48.174;16.370;2024-02-16T10:11:54;6.50;;;2.80;;
70487;SDS011;57976;48.174;16.370;2024-02-16T10:14:15;7.70;;;2.80;;
70487;SDS011;57976;48.174;16.370;2024-02-16T10:16:20;7.10;;;2.80;;
70487;SDS011;57976;48.174;16.370;2024-02-16T10:18:27;7.00;;;2.70;;
70487;SDS011;57976;48.174;16.370;2024-02-16T10:20:33;6.10;;;2.30;;
70487;SDS011;57976;48.174;16.370;2024-02-16T10:22:38;6.60;;;2.60;;
70487;SDS011;57976;48.174;16.370;2024-02-16T10:24:51;6.70;;;2.60;;
70487;SDS011;57976;48.174;16.370;2024-02-16T10:26:57;6.50;;;2.80;;
70487;SDS011;57976;48.174;16.370;2024-02-16T10:29:02;6.50;;;2.80;;
70487;SDS011;57976;48.174;16.370;2024-02-16T10:31:08;6.80;;;2.90;;
70487;SDS011;57976;48.174;16.370;2024-02-16T10:33:13;6.30;;;2.70;;
70487;SDS011;57976;48.174;16.370;2024-02-16T10:35:19;7.60;;;2.70;;
70487;SDS011;57976;48.174;16.370;2024-02-16T10:37:27;6.30;;;2.80;;
70487;SDS011;57976;48.174;16.370;2024-02-16T10:39:33;6.30;;;2.50;;
70487;SDS011;57976;48.174;16.370;2024-02-16T10:41:39;5.80;;;2.30;;
70487;SDS011;57976;48.174;16.370;2024-02-16T10:43:44;6.90;;;2.60;;
70487;SDS011;57976;48.174;16.370;2024-02-16T10:45:52;7.20;;;2.50;;
70487;SDS011;57976;48.174;16.370;2024-02-16T10:47:59;6.80;;;2.50;;
70487;SDS011;57976;48.174;16.370;2024-02-16T10:50:05;6.90;;;2.60;;
70487;SDS011;57976;48.174;16.370;2024-02-16T10:52:11;7.60;;;2.30;;
70487;SDS011;57976;48.174;16.370;2024-02-16T10:54:19;6.00;;;2.20;;
70487;SDS011;57976;48.174;16.370;2024-02-16T10:56:34;5.60;;;2.20;;
70487;SDS011;57976;48.174;16.370;2024-02-16T10:58:39;6.30;;;2.40;;
70487;SDS011;57976;48.174;16.370;2024-02-16T11:00:51;6.00;;;2.40;;
70487;SDS011;57976;48.174;16.370;2024-02-16T11:02:57;5.90;;;2.40;;
70487;SDS011;57976;48.174;16.370;2024-02-16T11:05:08;5.90;;;2.30;;
70487;SDS011;57976;48.174;16.370;2024-02-16T11:07:26;7.00;;;2.70;;
70487;SDS011;57976;48.174;16.370;2024-02-16T11:09:35;5.90;;;2.40;;
70487;SDS011;57976;48.174;16.370;2024-02-16T11:11:41;6.80;;;2.50;;
70487;SDS011;57976;48.174;16.370;2024-02-16T11:13:56;8.20;;;2.50;;
70487;SDS011;57976;48.174;16.370;2024-02-16T11:16:02;6.70;;;2.40;;
70487;SDS011;57976;48.174;16.370;2024-02-16T11:18:10;6.40;;;2.50;;
70487;SDS011;57976;48.174;16.370;2024-02-16T11:20:17;6.60;;;2.70;;
70487;SDS011;57976;48.174;16.370;2024-02-16T11:22:22;6.20;;;2.50;;
70487;SDS011;57976;48.174;16.370;2024-02-16T11:24:33;5.70;;;2.40;;
70487;SDS011;57976;48.174;16.370;2024-02-16T11:26:44;5.60;;;2.50;;
70487;SDS011;57976;48.174;16.370;2024-02-16T11:28:50;6.30;;;2.50;;
70487;SDS011;57976;48.174;16.370;2024-02-16T11:30:55;6.90;;;2.50;;
70487;SDS011;57976;48.174;16.370;2024-02-16T11:33:04;7.80;;;2.20;;
70487;SDS011;57976;48.174;16.370;2024-02-16T11:35:09;7.70;;;2.40;;
70487;SDS011;57976;48.174;16.370;2024-02-16T11:37:15;5.80;;;2.30;;
70487;SDS011;57976;48.174;16.370;2024-02-16T11:39:21;6.00;;;2.20;;
70487;SDS011;57976;48.174;16.370;2024-02-16T11:41:27;6.10;;;2.60;;
70487;SDS011;57976;48.174;16.370;2024-02-16T11:43:32;5.80;;;2.00;;
70487;SDS011;57976;48.174;16.370;2024-02-16T11:45:37;6.10;;;2.10;;
70487;SDS011;57976;48.174;16.370;2024-02-16T11:47:42;7.90;;;3.20;;
70487;SDS011;57976;48.174;16.370;2024-02-16T11:49:47;13.20;;;5.90;;
70487;SDS011;57976;48.174;16.370;2024-02-16T11:51:52;12.70;;;5.60;;
70487;SDS011;57976;48.174;16.370;2024-02-16T11:53:58;9.90;;;4.30;;
70487;SDS011;57976;48.174;16.370;2024-02-16T11:56:03;11.60;;;4.60;;
70487;SDS011;57976;48.174;16.370;2024-02-16T11:58:09;11.40;;;4.10;;
70487;SDS011;57976;48.174;16.370;2024-02-16T12:00:14;10.00;;;4.30;;
70487;SDS011;57976;48.174;16.370;2024-02-16T12:02:20;15.40;;;7.60;;
70487;SDS011;57976;48.174;16.370;2024-02-16T12:04:28;10.80;;;4.60;;
70487;SDS011;57976;48.174;16.370;2024-02-16T12:06:33;10.70;;;4.80;;
70487;SDS011;57976;48.174;16.370;2024-02-16T12:08:39;7.80;;;3.70;;
70487;SDS011;57976;48.174;16.370;2024-02-16T12:10:44;6.60;;;2.50;;
70487;SDS011;57976;48.174;16.370;2024-02-16T12:12:50;5.50;;;2.20;;
70487;SDS011;57976;48.174;16.370;2024-02-16T12:14:55;5.10;;;1.80;;